KAL2131 RKPK-RJAA
Flight info
| Callsign | KAL2131 |
|---|---|
| Flight time | N/A |
| Altitude | 37000 |
| Route | PSN Z84 KALEK Y206 MIHOU Y45 KMC Y515 ZUWAI Y517 ESKAS Y303 ENTAK Y30 SWAMP |
| Aircraft | B738/M-SDE2E3FGHIRWXY/LB1 |
Departure
| Time | 2026-04-30 13:42 |
|---|---|
| Airport | Gimhae International Airport (RKPK) |
Arrival
| Time | N/A |
|---|---|
| Airport | Narita International Airport (RJAA) |
| Time | Latitude | Longitude | Altitude | Speed | Heading |
|---|---|---|---|---|---|
| 2026-04-30 13:28 | 35.17057 | 128.94601 | 22 ft | 0 kts | 69° |
| 2026-04-30 13:36 | 35.17051 | 128.94583 | 22 ft | 2 kts | 69° |
| 2026-04-30 13:36 | 35.17044 | 128.94556 | 25 ft | 4 kts | 80° |
| 2026-04-30 13:36 | 35.17048 | 128.94500 | 23 ft | 0 kts | 115° |
| 2026-04-30 13:39 | 35.17014 | 128.94502 | 22 ft | 3 kts | 212° |
| 2026-04-30 13:39 | 35.16991 | 128.94407 | 22 ft | 10 kts | 264° |
| 2026-04-30 13:40 | 35.16983 | 128.94322 | 22 ft | 10 kts | 264° |
| 2026-04-30 13:40 | 35.16976 | 128.94240 | 22 ft | 10 kts | 264° |
| 2026-04-30 13:40 | 35.16969 | 128.94159 | 22 ft | 9 kts | 263° |
| 2026-04-30 13:40 | 35.16967 | 128.94082 | 24 ft | 7 kts | 287° |
| 2026-04-30 13:41 | 35.17002 | 128.94051 | 23 ft | 6 kts | 348° |
| 2026-04-30 13:41 | 35.17029 | 128.94047 | 21 ft | 3 kts | 353° |
| 2026-04-30 13:41 | 35.17262 | 128.94017 | 23 ft | 71 kts | 354° |
| 2026-04-30 13:41 | 35.17998 | 128.93927 | 23 ft | 139 kts | 355° |
| 2026-04-30 13:42 | 35.19115 | 128.93767 | 251 ft | 176 kts | 353° |
| 2026-04-30 13:42 | 35.20386 | 128.93548 | 928 ft | 193 kts | 346° |
| 2026-04-30 13:42 | 35.22092 | 128.91231 | 2382 ft | 198 kts | 290° |
| 2026-04-30 13:43 | 35.22554 | 128.89670 | 3069 ft | 190 kts | 293° |
| 2026-04-30 13:43 | 35.23092 | 128.88184 | 3617 ft | 196 kts | 298° |
| 2026-04-30 13:43 | 35.23784 | 128.86649 | 3760 ft | 214 kts | 302° |
| 2026-04-30 13:43 | 35.24568 | 128.85018 | 3892 ft | 231 kts | 302° |
| 2026-04-30 13:44 | 35.25412 | 128.83308 | 4329 ft | 237 kts | 303° |
| 2026-04-30 13:44 | 35.26275 | 128.81590 | 4905 ft | 237 kts | 304° |
| 2026-04-30 13:44 | 35.27151 | 128.79862 | 4978 ft | 240 kts | 304° |
| 2026-04-30 13:44 | 35.28031 | 128.78132 | 4978 ft | 239 kts | 304° |
| 2026-04-30 13:45 | 35.29651 | 128.74632 | 4970 ft | 241 kts | 285° |
| 2026-04-30 13:45 | 35.29625 | 128.72574 | 4975 ft | 250 kts | 255° |
| 2026-04-30 13:45 | 35.28706 | 128.70668 | 4994 ft | 270 kts | 230° |
| 2026-04-30 13:46 | 35.27335 | 128.69052 | 4997 ft | 276 kts | 224° |
| 2026-04-30 13:46 | 35.25890 | 128.67498 | 4981 ft | 275 kts | 223° |
| 2026-04-30 13:46 | 35.24347 | 128.66185 | 4962 ft | 275 kts | 203° |
| 2026-04-30 13:46 | 35.22478 | 128.65808 | 4975 ft | 275 kts | 175° |
| 2026-04-30 13:47 | 35.20653 | 128.66484 | 4988 ft | 278 kts | 149° |
| 2026-04-30 13:47 | 35.19101 | 128.67910 | 4995 ft | 280 kts | 139° |
| 2026-04-30 13:47 | 35.17615 | 128.69458 | 4984 ft | 280 kts | 139° |
| 2026-04-30 13:47 | 35.16131 | 128.70987 | 4996 ft | 279 kts | 140° |
| 2026-04-30 13:48 | 35.14640 | 128.72503 | 4982 ft | 278 kts | 139° |
| 2026-04-30 13:48 | 35.13243 | 128.74120 | 4978 ft | 275 kts | 123° |
| 2026-04-30 13:48 | 35.12520 | 128.76254 | 5029 ft | 273 kts | 96° |
| 2026-04-30 13:48 | 35.12422 | 128.78577 | 5567 ft | 275 kts | 88° |
| 2026-04-30 13:49 | 35.12416 | 128.80869 | 6394 ft | 273 kts | 87° |
| 2026-04-30 13:49 | 35.12415 | 128.83197 | 7090 ft | 276 kts | 89° |
| 2026-04-30 13:49 | 35.12410 | 128.85569 | 7727 ft | 282 kts | 89° |
| 2026-04-30 13:49 | 35.12398 | 128.87989 | 8384 ft | 287 kts | 91° |
| 2026-04-30 13:50 | 35.12382 | 128.90443 | 9108 ft | 290 kts | 92° |
| 2026-04-30 13:50 | 35.12339 | 128.95467 | 10358 ft | 305 kts | 94° |
| 2026-04-30 13:50 | 35.12311 | 128.98159 | 10511 ft | 328 kts | 93° |
| 2026-04-30 13:51 | 35.12322 | 129.01023 | 10782 ft | 345 kts | 89° |
| 2026-04-30 13:51 | 35.12544 | 129.03948 | 11323 ft | 354 kts | 86° |
| 2026-04-30 13:51 | 35.12865 | 129.06945 | 11999 ft | 358 kts | 85° |
| 2026-04-30 13:51 | 35.13211 | 129.09970 | 12710 ft | 361 kts | 86° |
| 2026-04-30 13:52 | 35.13553 | 129.13021 | 13431 ft | 364 kts | 86° |
| 2026-04-30 13:52 | 35.13887 | 129.16115 | 14094 ft | 368 kts | 87° |
| 2026-04-30 13:52 | 35.14214 | 129.19247 | 14693 ft | 374 kts | 87° |
| 2026-04-30 13:52 | 35.14538 | 129.22424 | 15319 ft | 378 kts | 87° |
| 2026-04-30 13:53 | 35.14855 | 129.25592 | 15931 ft | 383 kts | 88° |
| 2026-04-30 13:53 | 35.15177 | 129.28849 | 16544 ft | 388 kts | 88° |
| 2026-04-30 13:53 | 35.15502 | 129.32149 | 17142 ft | 393 kts | 88° |
| 2026-04-30 13:53 | 35.15829 | 129.35488 | 17723 ft | 398 kts | 88° |
| 2026-04-30 13:54 | 35.16159 | 129.38874 | 18309 ft | 404 kts | 88° |
| 2026-04-30 13:54 | 35.16493 | 129.42309 | 18793 ft | 409 kts | 88° |
| 2026-04-30 13:54 | 35.16831 | 129.45789 | 19267 ft | 415 kts | 89° |
| 2026-04-30 13:54 | 35.17172 | 129.49316 | 19745 ft | 420 kts | 89° |
| 2026-04-30 13:55 | 35.17516 | 129.52886 | 20240 ft | 425 kts | 89° |
| 2026-04-30 13:55 | 35.17864 | 129.56502 | 20711 ft | 431 kts | 89° |
| 2026-04-30 13:55 | 35.18215 | 129.60164 | 21177 ft | 435 kts | 89° |
| 2026-04-30 13:55 | 35.18564 | 129.63814 | 21637 ft | 440 kts | 89° |
| 2026-04-30 13:56 | 35.18921 | 129.67559 | 22074 ft | 445 kts | 90° |
| 2026-04-30 13:56 | 35.19281 | 129.71343 | 22515 ft | 450 kts | 90° |
| 2026-04-30 13:56 | 35.19643 | 129.75169 | 22937 ft | 455 kts | 90° |
| 2026-04-30 13:56 | 35.20010 | 129.79044 | 23345 ft | 460 kts | 90° |
| 2026-04-30 13:57 | 35.20379 | 129.82962 | 23696 ft | 466 kts | 90° |
| 2026-04-30 13:57 | 35.20745 | 129.86863 | 24087 ft | 470 kts | 90° |
| 2026-04-30 13:57 | 35.21131 | 129.90849 | 24475 ft | 473 kts | 89° |
| 2026-04-30 13:57 | 35.21566 | 129.94862 | 24850 ft | 477 kts | 89° |
| 2026-04-30 13:58 | 35.22028 | 129.98893 | 25225 ft | 480 kts | 88° |
| 2026-04-30 13:58 | 35.22974 | 130.07029 | 25985 ft | 486 kts | 88° |
| 2026-04-30 13:58 | 35.23446 | 130.11141 | 26357 ft | 489 kts | 88° |
| 2026-04-30 13:59 | 35.23915 | 130.15276 | 26694 ft | 493 kts | 88° |
| 2026-04-30 13:59 | 35.24383 | 130.19443 | 26996 ft | 496 kts | 88° |
| 2026-04-30 13:59 | 35.24850 | 130.23638 | 27335 ft | 499 kts | 89° |
| 2026-04-30 13:59 | 35.25318 | 130.27862 | 27679 ft | 502 kts | 88° |
| 2026-04-30 14:00 | 35.25787 | 130.32106 | 28009 ft | 505 kts | 89° |
| 2026-04-30 14:00 | 35.26722 | 130.40613 | 28633 ft | 510 kts | 88° |
| 2026-04-30 14:00 | 35.27194 | 130.44928 | 28938 ft | 513 kts | 88° |
| 2026-04-30 14:01 | 35.27666 | 130.49265 | 29237 ft | 515 kts | 88° |
| 2026-04-30 14:01 | 35.28141 | 130.53629 | 29541 ft | 517 kts | 88° |
| 2026-04-30 14:01 | 35.28615 | 130.58008 | 29825 ft | 519 kts | 88° |
| 2026-04-30 14:01 | 35.29084 | 130.62349 | 30085 ft | 521 kts | 88° |
| 2026-04-30 14:02 | 35.29558 | 130.66760 | 30352 ft | 522 kts | 89° |
| 2026-04-30 14:02 | 35.30033 | 130.71177 | 30650 ft | 523 kts | 89° |
| 2026-04-30 14:02 | 35.30505 | 130.75594 | 30956 ft | 523 kts | 89° |
| 2026-04-30 14:02 | 35.30977 | 130.80025 | 31212 ft | 524 kts | 89° |
| 2026-04-30 14:03 | 35.31448 | 130.84466 | 31460 ft | 525 kts | 90° |
| 2026-04-30 14:03 | 35.31911 | 130.88856 | 31733 ft | 526 kts | 90° |
| 2026-04-30 14:03 | 35.32379 | 130.93301 | 32011 ft | 526 kts | 90° |
| 2026-04-30 14:03 | 35.32846 | 130.97752 | 32276 ft | 527 kts | 90° |
| 2026-04-30 14:04 | 35.33312 | 131.02208 | 32515 ft | 528 kts | 90° |
| 2026-04-30 14:04 | 35.33777 | 131.06672 | 32779 ft | 529 kts | 91° |
| 2026-04-30 14:04 | 35.34241 | 131.11151 | 33041 ft | 530 kts | 91° |
| 2026-04-30 14:04 | 35.34705 | 131.15640 | 33297 ft | 531 kts | 91° |
| 2026-04-30 14:05 | 35.35168 | 131.20136 | 33548 ft | 532 kts | 91° |
| 2026-04-30 14:05 | 35.35630 | 131.24640 | 33773 ft | 533 kts | 91° |
| 2026-04-30 14:05 | 35.36091 | 131.29150 | 33973 ft | 534 kts | 91° |
| 2026-04-30 14:05 | 35.36552 | 131.33677 | 34223 ft | 535 kts | 92° |
| 2026-04-30 14:06 | 35.37007 | 131.38148 | 34556 ft | 534 kts | 92° |
| 2026-04-30 14:06 | 35.37922 | 131.47211 | 34937 ft | 537 kts | 92° |
| 2026-04-30 14:07 | 35.38832 | 131.56306 | 35334 ft | 538 kts | 92° |
| 2026-04-30 14:07 | 35.39286 | 131.60862 | 35545 ft | 538 kts | 92° |
| 2026-04-30 14:07 | 35.39738 | 131.65421 | 35767 ft | 539 kts | 92° |
| 2026-04-30 14:08 | 35.40632 | 131.74503 | 36212 ft | 540 kts | 92° |
| 2026-04-30 14:08 | 35.41082 | 131.79089 | 36424 ft | 540 kts | 93° |
| 2026-04-30 14:08 | 35.41976 | 131.88247 | 36788 ft | 541 kts | 93° |
| 2026-04-30 14:09 | 35.42862 | 131.97460 | 36868 ft | 548 kts | 93° |
| 2026-04-30 14:10 | 35.44196 | 132.11328 | 36860 ft | 541 kts | 93° |
| 2026-04-30 14:10 | 35.45056 | 132.20391 | 36851 ft | 535 kts | 93° |
| 2026-04-30 14:11 | 35.45902 | 132.29433 | 36857 ft | 535 kts | 93° |
| 2026-04-30 14:11 | 35.46743 | 132.38558 | 36873 ft | 542 kts | 93° |
| 2026-04-30 14:12 | 35.47590 | 132.47784 | 36858 ft | 546 kts | 93° |
| 2026-04-30 14:12 | 35.48442 | 132.57083 | 36863 ft | 548 kts | 93° |
| 2026-04-30 14:13 | 35.49287 | 132.66402 | 36873 ft | 550 kts | 92° |
| 2026-04-30 14:13 | 35.50114 | 132.75674 | 36829 ft | 539 kts | 93° |
| 2026-04-30 14:14 | 35.50903 | 132.84779 | 36852 ft | 536 kts | 93° |
| 2026-04-30 14:14 | 35.51718 | 132.93845 | 36862 ft | 538 kts | 93° |
| 2026-04-30 14:15 | 35.52537 | 133.03009 | 36869 ft | 540 kts | 93° |
| 2026-04-30 14:15 | 35.53715 | 133.12147 | 36840 ft | 554 kts | 80° |
| 2026-04-30 14:16 | 35.56208 | 133.21158 | 36864 ft | 557 kts | 76° |
| 2026-04-30 14:16 | 35.58825 | 133.30131 | 36876 ft | 558 kts | 76° |
| 2026-04-30 14:17 | 35.61358 | 133.39168 | 36854 ft | 560 kts | 77° |
| 2026-04-30 14:17 | 35.63821 | 133.48171 | 36850 ft | 558 kts | 77° |
| 2026-04-30 14:18 | 35.66293 | 133.57214 | 36858 ft | 556 kts | 77° |
| 2026-04-30 14:18 | 35.69980 | 133.70721 | 36868 ft | 553 kts | 77° |
| 2026-04-30 14:19 | 35.73612 | 133.84109 | 36868 ft | 551 kts | 77° |
| 2026-04-30 14:20 | 35.76033 | 133.93068 | 36866 ft | 551 kts | 77° |
| 2026-04-30 14:20 | 35.79657 | 134.06545 | 36867 ft | 553 kts | 77° |
| 2026-04-30 14:21 | 35.82061 | 134.15520 | 36879 ft | 556 kts | 77° |
| 2026-04-30 14:22 | 35.85700 | 134.29158 | 36872 ft | 559 kts | 77° |
| 2026-04-30 14:22 | 35.89336 | 134.42849 | 36880 ft | 558 kts | 77° |
| 2026-04-30 14:23 | 35.94126 | 134.61022 | 36915 ft | 555 kts | 77° |
| 2026-04-30 14:24 | 35.97668 | 134.74573 | 36901 ft | 555 kts | 77° |
| 2026-04-30 14:25 | 36.02388 | 134.92715 | 36905 ft | 553 kts | 77° |
| 2026-04-30 14:26 | 36.05889 | 135.06253 | 36913 ft | 553 kts | 77° |
| 2026-04-30 14:27 | 36.09391 | 135.19871 | 36927 ft | 554 kts | 77° |
| 2026-04-30 14:27 | 36.11327 | 135.27429 | 36926 ft | 554 kts | 77° |
| 2026-04-30 14:28 | 36.14813 | 135.41096 | 36921 ft | 556 kts | 77° |
| 2026-04-30 14:28 | 36.17131 | 135.50223 | 36923 ft | 556 kts | 77° |
| 2026-04-30 14:29 | 36.21761 | 135.68543 | 36940 ft | 558 kts | 77° |
| 2026-04-30 14:31 | 36.27513 | 135.91488 | 36930 ft | 559 kts | 77° |
| 2026-04-30 14:31 | 36.30954 | 136.05312 | 36937 ft | 559 kts | 77° |
| 2026-04-30 14:32 | 36.34365 | 136.19096 | 36938 ft | 559 kts | 77° |
| 2026-04-30 14:33 | 36.36635 | 136.28311 | 36935 ft | 558 kts | 77° |
| 2026-04-30 14:33 | 36.40225 | 136.42071 | 36925 ft | 562 kts | 68° |
| 2026-04-30 14:34 | 36.43871 | 136.50667 | 36938 ft | 563 kts | 62° |
| 2026-04-30 14:34 | 36.47691 | 136.59168 | 36943 ft | 562 kts | 62° |
| 2026-04-30 14:35 | 36.53251 | 136.71966 | 36948 ft | 562 kts | 63° |
| 2026-04-30 14:36 | 36.56921 | 136.80550 | 36957 ft | 561 kts | 63° |
| 2026-04-30 14:36 | 36.60585 | 136.89110 | 36956 ft | 560 kts | 63° |
| 2026-04-30 14:37 | 36.63595 | 136.97923 | 36960 ft | 553 kts | 79° |
| 2026-04-30 14:37 | 36.65018 | 137.07250 | 36970 ft | 547 kts | 86° |
| 2026-04-30 14:38 | 36.66236 | 137.16629 | 36965 ft | 548 kts | 86° |
| 2026-04-30 14:38 | 36.67510 | 137.25995 | 36966 ft | 549 kts | 85° |
| 2026-04-30 14:39 | 36.68825 | 137.35315 | 36969 ft | 550 kts | 85° |
| 2026-04-30 14:39 | 36.70153 | 137.44716 | 36983 ft | 551 kts | 85° |
| 2026-04-30 14:40 | 36.72123 | 137.58846 | 37014 ft | 553 kts | 85° |
| 2026-04-30 14:40 | 36.73430 | 137.68310 | 37030 ft | 553 kts | 85° |
| 2026-04-30 14:41 | 36.74728 | 137.77765 | 36947 ft | 553 kts | 85° |
| 2026-04-30 14:41 | 36.75369 | 137.82464 | 37055 ft | 548 kts | 85° |
| 2026-04-30 14:41 | 36.76009 | 137.87153 | 37045 ft | 548 kts | 85° |
| 2026-04-30 14:42 | 36.77270 | 137.96449 | 37075 ft | 548 kts | 85° |
| 2026-04-30 14:42 | 36.78535 | 138.05837 | 37090 ft | 549 kts | 85° |
| 2026-04-30 14:43 | 36.79812 | 138.15247 | 37086 ft | 550 kts | 85° |
| 2026-04-30 14:43 | 36.81120 | 138.24668 | 37100 ft | 550 kts | 85° |
| 2026-04-30 14:44 | 36.82422 | 138.34103 | 37095 ft | 551 kts | 85° |
| 2026-04-30 14:44 | 36.83703 | 138.43487 | 37110 ft | 551 kts | 85° |
| 2026-04-30 14:45 | 36.84979 | 138.52949 | 37111 ft | 552 kts | 85° |
| 2026-04-30 14:45 | 36.86234 | 138.62422 | 37128 ft | 552 kts | 85° |
| 2026-04-30 14:46 | 36.87478 | 138.71883 | 37129 ft | 553 kts | 85° |
| 2026-04-30 14:46 | 36.88716 | 138.81344 | 37169 ft | 551 kts | 85° |
| 2026-04-30 14:47 | 36.89936 | 138.90735 | 37144 ft | 551 kts | 85° |
| 2026-04-30 14:47 | 36.91162 | 139.00213 | 37152 ft | 553 kts | 85° |
| 2026-04-30 14:48 | 36.92385 | 139.09696 | 37158 ft | 552 kts | 85° |
| 2026-04-30 14:48 | 36.93619 | 139.19162 | 37159 ft | 552 kts | 85° |
| 2026-04-30 14:49 | 36.94852 | 139.28642 | 37190 ft | 552 kts | 85° |
| 2026-04-30 14:49 | 36.96074 | 139.38131 | 37190 ft | 552 kts | 85° |
| 2026-04-30 14:50 | 36.97886 | 139.52327 | 37167 ft | 553 kts | 85° |
| 2026-04-30 14:51 | 36.99661 | 139.66571 | 37184 ft | 553 kts | 85° |
| 2026-04-30 14:52 | 37.01430 | 139.80858 | 37212 ft | 557 kts | 85° |
| 2026-04-30 14:52 | 37.03182 | 139.95269 | 37170 ft | 558 kts | 85° |
| 2026-04-30 14:53 | 37.04947 | 140.09594 | 37164 ft | 557 kts | 84° |
| 2026-04-30 14:54 | 37.07348 | 140.28761 | 37160 ft | 556 kts | 84° |
| 2026-04-30 14:55 | 37.08492 | 140.38420 | 36838 ft | 566 kts | 85° |
| 2026-04-30 14:55 | 37.09068 | 140.43312 | 36605 ft | 570 kts | 84° |
| 2026-04-30 14:55 | 37.10107 | 140.53095 | 36085 ft | 560 kts | 94° |
| 2026-04-30 14:56 | 37.08799 | 140.62354 | 35609 ft | 526 kts | 121° |
| 2026-04-30 14:56 | 37.05168 | 140.69925 | 35154 ft | 499 kts | 140° |
| 2026-04-30 14:57 | 37.02847 | 140.73077 | 34891 ft | 480 kts | 155° |
| 2026-04-30 14:57 | 36.97220 | 140.76278 | 34456 ft | 427 kts | 182° |
| 2026-04-30 14:58 | 36.91535 | 140.76455 | 33964 ft | 394 kts | 202° |
| 2026-04-30 14:58 | 36.88936 | 140.75575 | 33710 ft | 385 kts | 207° |
| 2026-04-30 14:58 | 36.83837 | 140.73568 | 32485 ft | 383 kts | 207° |
| 2026-04-30 14:59 | 36.78706 | 140.71557 | 30998 ft | 389 kts | 206° |
| 2026-04-30 15:00 | 36.71004 | 140.68607 | 29235 ft | 382 kts | 206° |
| 2026-04-30 15:00 | 36.65965 | 140.66689 | 28200 ft | 375 kts | 205° |
| 2026-04-30 15:01 | 36.61044 | 140.64813 | 27195 ft | 370 kts | 205° |
| 2026-04-30 15:01 | 36.59405 | 140.64187 | 26859 ft | 374 kts | 205° |
| 2026-04-30 15:01 | 36.53353 | 140.61874 | 25598 ft | 393 kts | 204° |
| 2026-04-30 15:02 | 36.50744 | 140.60886 | 25030 ft | 391 kts | 204° |
| 2026-04-30 15:02 | 36.48148 | 140.59901 | 24495 ft | 388 kts | 204° |
| 2026-04-30 15:03 | 36.40487 | 140.56986 | 22806 ft | 382 kts | 204° |
| 2026-04-30 15:03 | 36.35379 | 140.55309 | 21715 ft | 386 kts | 189° |
| 2026-04-30 15:04 | 36.30091 | 140.56934 | 20719 ft | 405 kts | 155° |
| 2026-04-30 15:04 | 36.24053 | 140.64416 | 19220 ft | 408 kts | 136° |
| 2026-04-30 15:05 | 36.18351 | 140.72034 | 17644 ft | 399 kts | 136° |
| 2026-04-30 15:06 | 36.14593 | 140.77003 | 16624 ft | 391 kts | 136° |
| 2026-04-30 15:06 | 36.10299 | 140.80758 | 15638 ft | 373 kts | 163° |
| 2026-04-30 15:07 | 36.05435 | 140.82814 | 14619 ft | 369 kts | 164° |
| 2026-04-30 15:07 | 36.00622 | 140.84906 | 13971 ft | 358 kts | 163° |
| 2026-04-30 15:08 | 35.95978 | 140.86960 | 12980 ft | 352 kts | 163° |
| 2026-04-30 15:08 | 35.89169 | 140.89966 | 11616 ft | 341 kts | 163° |
| 2026-04-30 15:09 | 35.84869 | 140.91863 | 11329 ft | 317 kts | 163° |
| 2026-04-30 15:09 | 35.80810 | 140.93648 | 10941 ft | 301 kts | 164° |
| 2026-04-30 15:10 | 35.76989 | 140.95265 | 10744 ft | 277 kts | 173° |
| 2026-04-30 15:11 | 35.70588 | 140.91817 | 9547 ft | 254 kts | 217° |
| 2026-04-30 15:11 | 35.67743 | 140.89263 | 8589 ft | 251 kts | 216° |
| 2026-04-30 15:12 | 35.63624 | 140.85609 | 7588 ft | 240 kts | 214° |
| 2026-04-30 15:13 | 35.60882 | 140.83185 | 6943 ft | 243 kts | 214° |
| 2026-04-30 15:14 | 35.55614 | 140.78526 | 6003 ft | 210 kts | 213° |
| 2026-04-30 15:14 | 35.52670 | 140.75925 | 5338 ft | 195 kts | 214° |
| 2026-04-30 15:16 | 35.48567 | 140.69590 | 4336 ft | 178 kts | 226° |
| 2026-04-30 15:17 | 35.49143 | 140.63630 | 3989 ft | 195 kts | 291° |
| 2026-04-30 15:18 | 35.51884 | 140.55975 | 3977 ft | 198 kts | 291° |
| 2026-04-30 15:19 | 35.55090 | 140.53045 | 3980 ft | 194 kts | 330° |